Time;durP1;ratioP1;P1;durP2;ratioP2;P2;SDS_P1;SDS_P2;PMS_P1;PMS_P2;Temp;Humidity;BMP_temperature;BMP_pressure;BME280_temperature;BME280_humidity;BME280_pressure;Samples;Min_cycle;Max_cycle;Signal;HPM_P1;HPM_P2
2022/09/04 00:11:56;;;;;;;;;;;;;;;14.46;100.00;100050.53;5502222;22;1691;-66
2022/09/04 00:14:32;;;;;;;;;;;;;;;14.43;100.00;100048.59;4992879;28;953;-67
2022/09/04 00:29:18;;;;;;;;;;;;;;;14.34;100.00;100075.34;4992969;28;621;-66
2022/09/04 00:34:52;;;;;;;;;;;;;;;14.37;100.00;100083.66;4992587;28;630;-67
2022/09/04 00:37:31;;;;;;;;;;;;;;;14.39;100.00;100084.00;4992637;28;2013;-68
2022/09/04 00:43:17;;;;;;;;;;;;;;;14.48;100.00;100089.03;4992490;28;610;-67
2022/09/04 00:45:50;;;;;;;;;;;;;;;14.49;100.00;100079.50;4992714;28;775;-68
2022/09/04 00:48:46;;;;;;;;;;;;;;;14.51;100.00;100091.00;4992350;28;885;-68
2022/09/04 00:51:19;;;;;;;;;;;;;;;14.49;100.00;100105.31;4970878;28;1166;-66
2022/09/04 00:57:09;;;;;;;;;;;;;;;14.53;100.00;100107.22;4992325;28;616;-67
2022/09/04 00:59:53;;;;;;;;;;;;;;;14.51;100.00;100096.56;4992205;28;835;-67
2022/09/04 01:02:37;;;;;;;;;;;;;;;14.50;100.00;100120.00;4992288;28;894;-67
2022/09/04 01:08:12;;;;;;;;;;;;;;;14.58;100.00;100113.16;4992535;28;645;-66
2022/09/04 01:10:49;;;;;;;;;;;;;;;14.61;100.00;100111.50;4992360;28;1013;-68
2022/09/04 01:13:23;;;;;;;;;;;;;;;14.64;100.00;100113.47;4992132;28;1286;-67
2022/09/04 01:19:14;;;;;;;;;;;;;;;14.66;100.00;100122.94;4996136;28;1906;-67
2022/09/04 01:21:41;;;;;;;;;;;;;;;14.64;100.00;100117.03;4996040;28;1049;-67
2022/09/04 01:24:18;;;;;;;;;;;;;;;14.64;100.00;100114.25;4996024;28;795;-69
2022/09/04 01:26:44;;;;;;;;;;;;;;;14.67;100.00;100115.38;4995977;28;835;-67
2022/09/04 01:29:24;;;;;;;;;;;;;;;14.67;100.00;100118.16;4995915;28;775;-68
2022/09/04 01:35:10;;;;;;;;;;;;;;;14.67;100.00;100112.59;4916801;29;920;-68
2022/09/04 01:37:59;;;;;;;;;;;;;;;14.69;100.00;100102.63;4916815;29;1966;-68
2022/09/04 01:40:28;;;;;;;;;;;;;;;14.70;100.00;100112.56;4916644;29;1011;-67
2022/09/04 01:43:02;;;;;;;;;;;;;;;14.77;100.00;100113.66;4916756;29;843;-66
2022/09/04 01:45:45;;;;;;;;;;;;;;;14.76;100.00;100109.28;4916556;29;885;-67
2022/09/04 01:48:30;;;;;;;;;;;;;;;14.77;100.00;100103.28;4916626;29;812;-67
2022/09/04 01:51:02;;;;;;;;;;;;;;;14.78;99.95;100110.41;4916604;29;884;-67
2022/09/04 01:53:32;;;;;;;;;;;;;;;14.80;99.79;100107.22;4916493;29;1132;-68
2022/09/04 01:56:12;;;;;;;;;;;;;;;14.78;99.70;100107.63;4900678;29;1292;-68
2022/09/04 01:58:56;;;;;;;;;;;;;;;14.79;99.73;100111.22;4916353;29;1958;-67
2022/09/04 02:01:26;;;;;;;;;;;;;;;14.73;99.62;100099.78;4916348;29;859;-67
2022/09/04 02:04:17;;;;;;;;;;;;;;;14.67;100.00;100101.47;4916304;29;1220;-66
2022/09/04 02:07:10;;;;;;;;;;;;;;;14.64;100.00;100102.34;4899257;29;1234;-67
2022/09/04 02:09:45;;;;;;;;;;;;;;;14.61;100.00;100114.28;4902015;29;1105;-67
2022/09/04 02:12:34;;;;;;;;;;;;;;;14.60;100.00;100112.72;4970664;28;1539;-67
2022/09/04 02:15:06;;;;;;;;;;;;;;;14.57;100.00;100113.56;5014808;28;906;-67
2022/09/04 02:17:48;;;;;;;;;;;;;;;14.55;100.00;100115.94;5014655;28;1906;-66
2022/09/04 02:32:37;;;;;;;;;;;;;;;14.53;100.00;100126.69;5014726;28;648;-67
2022/09/04 02:35:13;;;;;;;;;;;;;;;14.52;100.00;100120.38;4996714;28;1252;-68
2022/09/04 02:37:45;;;;;;;;;;;;;;;14.52;100.00;100131.50;5014529;28;1894;-68
2022/09/04 02:40:12;;;;;;;;;;;;;;;14.59;99.93;100130.63;5014220;28;787;-67
2022/09/04 02:42:46;;;;;;;;;;;;;;;14.65;99.47;100131.72;5014404;28;888;-67
2022/09/04 02:45:31;;;;;;;;;;;;;;;14.74;99.00;100134.72;5014145;28;862;-67
2022/09/04 02:48:22;;;;;;;;;;;;;;;14.88;98.17;100133.72;5014156;28;799;-68
2022/09/04 02:50:52;;;;;;;;;;;;;;;14.99;97.19;100137.09;5003674;28;1170;-67
2022/09/04 02:53:27;;;;;;;;;;;;;;;15.07;96.48;100129.41;5013991;28;874;-67
2022/09/04 02:56:00;;;;;;;;;;;;;;;15.17;96.00;100130.41;5014025;28;799;-67
2022/09/04 02:58:27;;;;;;;;;;;;;;;15.21;95.45;100133.91;5013834;28;1878;-67
2022/09/04 03:00:58;;;;;;;;;;;;;;;15.29;95.17;100132.56;5013910;28;803;-68
2022/09/04 03:03:36;;;;;;;;;;;;;;;15.37;94.53;100134.00;4996175;28;1424;-67
2022/09/04 03:09:08;;;;;;;;;;;;;;;15.51;93.50;100132.94;5013653;28;684;-68
2022/09/04 03:11:37;;;;;;;;;;;;;;;15.54;93.16;100129.31;5013654;28;1205;-67
2022/09/04 03:14:06;;;;;;;;;;;;;;;15.58;92.94;100127.25;5013561;28;815;-67
2022/09/04 03:16:45;;;;;;;;;;;;;;;15.60;92.81;100132.38;5013547;28;807;-67
2022/09/04 03:19:15;;;;;;;;;;;;;;;15.57;92.80;100120.06;5013434;28;1914;-67
2022/09/04 03:21:44;;;;;;;;;;;;;;;15.52;92.94;100126.16;5013468;28;826;-67
2022/09/04 03:24:10;;;;;;;;;;;;;;;15.46;93.28;100130.66;5013388;28;874;-67
2022/09/04 03:26:38;;;;;;;;;;;;;;;15.47;93.33;100135.81;5013355;28;815;-67
2022/09/04 03:29:11;;;;;;;;;;;;;;;15.52;93.18;100143.66;5013352;28;886;-67
2022/09/04 03:32:02;;;;;;;;;;;;;;;15.61;93.02;100150.66;5013503;28;795;-67
2022/09/04 03:34:29;;;;;;;;;;;;;;;15.67;92.49;100154.53;5013215;28;857;-68
2022/09/04 03:37:06;;;;;;;;;;;;;;;15.73;92.30;100163.22;5012486;28;834;-68
2022/09/04 03:39:53;;;;;;;;;;;;;;;15.75;92.10;100167.13;5013068;28;831;-67
2022/09/04 03:45:31;;;;;;;;;;;;;;;15.75;91.42;100177.50;5013087;28;605;-68
2022/09/04 03:47:57;;;;;;;;;;;;;;;15.75;91.68;100172.72;5012932;28;884;-68
2022/09/04 03:50:42;;;;;;;;;;;;;;;15.76;91.76;100173.47;5013212;28;795;-68
2022/09/04 03:53:26;;;;;;;;;;;;;;;15.77;91.79;100181.41;5012851;28;810;-68
2022/09/04 03:55:57;;;;;;;;;;;;;;;15.76;91.44;100168.69;5012842;28;834;-68
2022/09/04 03:58:38;;;;;;;;;;;;;;;15.77;91.58;100163.91;5012726;28;1949;-68
2022/09/04 04:01:22;;;;;;;;;;;;;;;15.76;91.02;100170.69;5012780;28;885;-67
2022/09/04 04:04:00;;;;;;;;;;;;;;;15.79;91.10;100161.47;5013432;28;826;-67
2022/09/04 04:06:42;;;;;;;;;;;;;;;15.78;90.69;100171.06;5012690;28;814;-67
2022/09/04 04:09:15;;;;;;;;;;;;;;;15.78;90.21;100160.69;5012798;28;906;-68
2022/09/04 04:12:05;;;;;;;;;;;;;;;15.79;90.02;100162.28;5012312;28;1207;-67
2022/09/04 04:14:54;;;;;;;;;;;;;;;15.78;89.73;100165.47;5012481;28;803;-67
2022/09/04 04:17:34;;;;;;;;;;;;;;;15.82;89.37;100163.41;5012423;28;2017;-68
2022/09/04 04:20:21;;;;;;;;;;;;;;;15.84;89.24;100161.75;5012536;28;802;-68
2022/09/04 04:22:49;;;;;;;;;;;;;;;15.86;89.12;100161.34;5012537;28;811;-68
2022/09/04 04:25:19;;;;;;;;;;;;;;;15.87;88.75;100165.69;5012442;28;877;-68
2022/09/04 04:27:54;;;;;;;;;;;;;;;15.89;88.48;100166.03;5012418;28;791;-68
2022/09/04 04:30:21;;;;;;;;;;;;;;;15.94;88.54;100151.63;5012251;28;779;-69
2022/09/04 04:33:02;;;;;;;;;;;;;;;16.01;88.27;100162.59;5012235;28;791;-68
2022/09/04 04:35:38;;;;;;;;;;;;;;;16.10;87.62;100160.00;5012409;28;788;-68
2022/09/04 04:38:05;;;;;;;;;;;;;;;16.19;86.91;100153.84;5012040;28;1894;-68
2022/09/04 04:40:45;;;;;;;;;;;;;;;16.29;86.67;100163.97;5012060;28;838;-68
2022/09/04 04:43:25;;;;;;;;;;;;;;;16.43;85.21;100165.66;5012063;28;900;-67
2022/09/04 04:46:19;;;;;;;;;;;;;;;16.57;84.34;100156.16;4994501;28;1623;-70
2022/09/04 04:49:04;;;;;;;;;;;;;;;16.65;83.66;100163.13;5008493;28;1053;-68
2022/09/04 04:55:05;;;;;;;;;;;;;;;16.76;82.32;100168.47;5011929;28;668;-68
2022/09/04 04:57:52;;;;;;;;;;;;;;;16.77;82.32;100170.03;5011911;28;1895;-70
2022/09/04 05:00:41;;;;;;;;;;;;;;;16.81;82.37;100170.75;5011949;28;2057;-69
2022/09/04 05:03:26;;;;;;;;;;;;;;;16.85;81.74;100171.44;4968601;28;1204;-69
2022/09/04 05:06:11;;;;;;;;;;;;;;;16.80;81.67;100174.78;5011717;28;863;-71
2022/09/04 05:08:49;;;;;;;;;;;;;;;16.73;81.86;100175.72;5011841;28;795;-69
2022/09/04 05:11:15;;;;;;;;;;;;;;;16.78;81.60;100177.19;5011642;28;1151;-69
2022/09/04 05:13:55;;;;;;;;;;;;;;;16.89;81.43;100188.13;5011776;28;834;-69
2022/09/04 05:19:44;;;;;;;;;;;;;;;16.94;80.93;100196.75;5011925;28;1989;-68
2022/09/04 05:22:31;;;;;;;;;;;;;;;16.88;81.22;100209.66;5011647;28;819;-68
2022/09/04 05:25:07;;;;;;;;;;;;;;;16.81;81.14;100197.88;5011742;28;850;-69
2022/09/04 05:27:55;;;;;;;;;;;;;;;16.67;81.26;100208.16;5011613;28;835;-69
2022/09/04 05:30:27;;;;;;;;;;;;;;;16.69;81.76;100213.31;4993936;28;1281;-68
2022/09/04 05:45:10;;;;;;;;;;;;;;;16.72;80.78;100232.72;5011552;28;684;-68
2022/09/04 05:47:39;;;;;;;;;;;;;;;16.73;80.35;100234.31;5011431;28;893;-68
2022/09/04 05:50:22;;;;;;;;;;;;;;;16.81;80.36;100228.59;5011465;28;850;-68
2022/09/04 05:53:10;;;;;;;;;;;;;;;16.96;80.03;100245.78;5011467;28;858;-69
2022/09/04 05:58:47;;;;;;;;;;;;;;;17.05;78.82;100238.38;5011444;28;1898;-68
2022/09/04 06:01:30;;;;;;;;;;;;;;;16.99;78.79;100242.13;5012949;28;806;-68
2022/09/04 06:04:11;;;;;;;;;;;;;;;17.00;78.88;100249.28;5014922;28;1157;-68
2022/09/04 06:06:44;;;;;;;;;;;;;;;17.02;78.74;100241.25;5014988;28;867;-67
2022/09/04 06:09:30;;;;;;;;;;;;;;;17.00;78.40;100252.06;5014799;28;799;-69
2022/09/04 06:12:07;;;;;;;;;;;;;;;17.08;78.44;100270.22;5014749;28;1191;-67
2022/09/04 06:14:55;;;;;;;;;;;;;;;17.11;77.89;100264.56;4997164;28;925;-67
2022/09/04 06:17:32;;;;;;;;;;;;;;;17.19;77.50;100265.16;5014808;28;1914;-67
2022/09/04 06:20:23;;;;;;;;;;;;;;;17.33;77.50;100275.97;5014900;28;810;-68
2022/09/04 06:23:20;;;;;;;;;;;;;;;17.52;77.00;100273.53;4996912;28;1280;-67
2022/09/04 06:26:09;;;;;;;;;;;;;;;17.54;76.40;100280.25;5014045;28;1246;-67
2022/09/04 06:28:49;;;;;;;;;;;;;;;17.59;75.93;100289.31;5014588;28;819;-68
2022/09/04 06:31:19;;;;;;;;;;;;;;;17.66;75.82;100275.94;5014471;28;795;-68
2022/09/04 06:33:49;;;;;;;;;;;;;;;17.79;75.57;100276.00;5014321;28;799;-67
2022/09/04 06:36:48;;;;;;;;;;;;;;;17.92;75.04;100278.88;5014310;28;811;-69
2022/09/04 06:39:24;;;;;;;;;;;;;;;18.05;74.47;100276.91;4996743;28;1894;-68
2022/09/04 06:41:59;;;;;;;;;;;;;;;18.12;73.78;100284.31;5014520;28;874;-67
2022/09/04 06:44:28;;;;;;;;;;;;;;;18.14;73.05;100281.88;5014461;28;810;-68
2022/09/04 06:47:00;;;;;;;;;;;;;;;18.16;72.72;100299.00;5014497;28;791;-68
2022/09/04 06:49:51;;;;;;;;;;;;;;;18.26;72.58;100297.09;5014109;28;830;-69
2022/09/04 06:52:26;;;;;;;;;;;;;;;18.49;72.15;100304.44;5014065;28;814;-68
2022/09/04 06:55:33;;;;;;;;;;;;;;;18.70;71.15;100300.22;5013960;28;855;-68
2022/09/04 06:58:19;;;;;;;;;;;;;;;18.91;70.28;100304.41;4991161;28;1878;-68
2022/09/04 07:01:18;;;;;;;;;;;;;;;19.29;69.13;100307.19;5010422;28;1171;-68
2022/09/04 07:03:55;;;;;;;;;;;;;;;19.62;67.56;100308.91;5013985;28;819;-68
2022/09/04 07:06:40;;;;;;;;;;;;;;;19.79;66.20;100304.72;5013741;28;890;-68
2022/09/04 07:09:22;;;;;;;;;;;;;;;19.93;64.83;100300.66;5013786;28;882;-68
2022/09/04 07:12:07;;;;;;;;;;;;;;;20.29;64.28;100302.94;4992337;28;1499;-68
2022/09/04 07:14:39;;;;;;;;;;;;;;;20.44;63.03;100303.19;4994233;28;819;-68
2022/09/04 07:17:09;;;;;;;;;;;;;;;20.57;62.12;100311.53;4994052;28;846;-68
2022/09/04 07:19:45;;;;;;;;;;;;;;;20.73;61.94;100300.09;4981341;28;1954;-68
2022/09/04 07:22:32;;;;;;;;;;;;;;;20.86;60.93;100294.38;4990731;28;784;-68
2022/09/04 07:25:06;;;;;;;;;;;;;;;21.17;60.81;100299.19;4993771;28;882;-68
2022/09/04 07:28:05;;;;;;;;;;;;;;;21.55;59.63;100293.22;4994055;28;822;-67
2022/09/04 07:30:52;;;;;;;;;;;;;;;21.84;57.92;100294.78;4951337;28;1139;-67
2022/09/04 07:33:23;;;;;;;;;;;;;;;22.36;57.23;100292.09;4993483;28;1149;-66
2022/09/04 07:35:56;;;;;;;;;;;;;;;23.11;55.31;100284.97;4993717;28;847;-67
2022/09/04 07:38:41;;;;;;;;;;;;;;;23.46;52.44;100284.47;4993680;28;1886;-68
2022/09/04 07:41:15;;;;;;;;;;;;;;;23.82;51.50;100291.91;4993549;28;830;-68
2022/09/04 07:47:12;;;;;;;;;;;;;;;26.30;45.02;100292.00;4993481;28;598;-69
2022/09/04 07:49:48;;;;;;;;;;;;;;;26.36;44.65;100298.50;4993401;28;881;-68
2022/09/04 07:52:26;;;;;;;;;;;;;;;25.95;44.98;100304.28;4993384;28;933;-67
2022/09/04 07:55:09;;;;;;;;;;;;;;;24.77;47.15;100303.38;4986278;28;1281;-69
2022/09/04 07:57:54;;;;;;;;;;;;;;;23.52;49.68;100307.94;4993493;28;1988;-68
2022/09/04 08:00:21;;;;;;;;;;;;;;;23.24;51.12;100308.88;4993167;28;823;-67
2022/09/04 08:03:00;;;;;;;;;;;;;;;24.81;48.12;100296.25;4992994;28;866;-67
2022/09/04 08:18:04;;;;;;;;;;;;;;;26.93;42.11;100272.19;5002240;28;1985;-69
2022/09/04 08:20:52;;;;;;;;;;;;;;;27.09;41.12;100271.50;5012478;28;862;-69
2022/09/04 08:23:17;;;;;;;;;;;;;;;25.09;44.66;100283.81;5011803;28;811;-68
2022/09/04 08:25:53;;;;;;;;;;;;;;;24.58;46.54;100283.81;5012352;28;875;-68
2022/09/04 08:28:26;;;;;;;;;;;;;;;24.07;47.23;100287.75;5012339;28;811;-68
2022/09/04 08:31:04;;;;;;;;;;;;;;;24.32;47.90;100275.09;5012487;28;826;-68
2022/09/04 08:36:44;;;;;;;;;;;;;;;24.63;46.78;100257.69;5012533;28;611;-67
2022/09/04 08:39:24;;;;;;;;;;;;;;;24.57;46.92;100247.56;5012286;28;1910;-68
2022/09/04 08:42:22;;;;;;;;;;;;;;;24.96;46.43;100245.31;5012208;28;889;-68
2022/09/04 08:44:54;;;;;;;;;;;;;;;26.76;43.39;100240.13;4968653;28;1224;-68
2022/09/04 08:47:35;;;;;;;;;;;;;;;28.06;40.78;100230.91;5012107;28;893;-68
2022/09/04 08:50:07;;;;;;;;;;;;;;;28.71;38.66;100232.72;5011971;28;822;-69
2022/09/04 08:52:52;;;;;;;;;;;;;;;29.33;38.24;100231.03;5012126;28;877;-69
2022/09/04 08:55:19;;;;;;;;;;;;;;;30.08;36.15;100233.75;4994350;28;843;-69
2022/09/04 08:58:00;;;;;;;;;;;;;;;30.50;35.40;100243.03;5011789;28;1953;-68
2022/09/04 09:00:33;;;;;;;;;;;;;;;29.23;36.90;100237.03;5011878;28;846;-67
2022/09/04 09:03:09;;;;;;;;;;;;;;;28.45;38.23;100235.06;4994137;28;1208;-69
2022/09/04 09:05:41;;;;;;;;;;;;;;;27.46;39.12;100242.34;4994151;28;1253;-68
2022/09/04 09:08:24;;;;;;;;;;;;;;;26.30;41.67;100250.28;5011741;28;831;-67
2022/09/04 09:11:11;;;;;;;;;;;;;;;25.04;44.27;100257.00;5011839;28;1015;-66
2022/09/04 09:13:50;;;;;;;;;;;;;;;24.46;45.37;100254.56;4994043;28;1204;-66
2022/09/04 09:16:22;;;;;;;;;;;;;;;24.49;46.04;100261.28;5011500;28;1220;-66
2022/09/04 09:19:07;;;;;;;;;;;;;;;24.81;45.82;100247.41;5012198;28;1910;-66
2022/09/04 09:21:41;;;;;;;;;;;;;;;25.01;45.26;100241.81;5011606;28;858;-66
2022/09/04 09:24:18;;;;;;;;;;;;;;;24.88;45.60;100252.69;5011717;28;922;-67
2022/09/04 09:26:51;;;;;;;;;;;;;;;24.74;45.91;100256.31;5011641;28;854;-66
2022/09/04 09:29:40;;;;;;;;;;;;;;;24.43;46.13;100257.56;5011550;28;835;-67
2022/09/04 09:35:32;;;;;;;;;;;;;;;24.37;46.65;100251.06;5013250;28;594;-67
2022/09/04 09:38:34;;;;;;;;;;;;;;;24.67;46.01;100246.19;5015321;28;1947;-67
2022/09/04 09:41:17;;;;;;;;;;;;;;;25.29;45.24;100252.00;4935699;29;1201;-65
2022/09/04 09:44:10;;;;;;;;;;;;;;;25.60;44.64;100254.16;4919846;29;1236;-67
2022/09/04 09:49:56;;;;;;;;;;;;;;;24.69;45.67;100245.69;4935781;29;983;-67
2022/09/04 09:52:28;;;;;;;;;;;;;;;24.81;45.50;100250.25;4935595;29;1063;-67
2022/09/04 09:55:16;;;;;;;;;;;;;;;25.03;44.89;100244.94;4935696;29;1138;-67
2022/09/04 09:58:00;;;;;;;;;;;;;;;25.05;44.72;100250.88;4935496;29;1891;-68
2022/09/04 10:00:45;;;;;;;;;;;;;;;25.45;44.46;100252.22;4935263;29;914;-67
2022/09/04 10:03:12;;;;;;;;;;;;;;;26.01;43.21;100251.28;4935330;29;1052;-67
2022/09/04 10:06:06;;;;;;;;;;;;;;;26.20;42.80;100252.53;4935366;29;840;-67
2022/09/04 10:08:51;;;;;;;;;;;;;;;26.02;43.10;100247.97;4935498;29;937;-67
2022/09/04 10:11:37;;;;;;;;;;;;;;;25.45;43.68;100251.41;4935168;29;1008;-67
2022/09/04 10:14:07;;;;;;;;;;;;;;;24.90;44.38;100244.47;4944778;28;1030;-67
2022/09/04 10:16:33;;;;;;;;;;;;;;;24.69;44.95;100245.69;5014546;28;1376;-66
2022/09/04 10:19:19;;;;;;;;;;;;;;;24.75;44.86;100247.34;5014579;28;1910;-67
2022/09/04 10:22:05;;;;;;;;;;;;;;;24.86;44.76;100249.56;5014612;28;855;-67
2022/09/04 10:24:34;;;;;;;;;;;;;;;24.93;44.67;100248.38;5014504;28;913;-67
2022/09/04 10:27:34;;;;;;;;;;;;;;;24.81;44.77;100248.19;5014571;28;849;-68
2022/09/04 10:30:11;;;;;;;;;;;;;;;24.45;45.24;100252.22;5014474;28;890;-67
2022/09/04 10:32:44;;;;;;;;;;;;;;;24.30;45.94;100254.25;5014462;28;800;-67
2022/09/04 10:35:24;;;;;;;;;;;;;;;24.58;45.73;100257.59;4996839;28;867;-67
2022/09/04 10:50:09;;;;;;;;;;;;;;;24.08;45.80;100286.50;5014438;28;590;-67
2022/09/04 10:52:39;;;;;;;;;;;;;;;23.89;46.15;100285.88;5014179;28;873;-67
2022/09/04 10:55:13;;;;;;;;;;;;;;;24.05;46.38;100282.59;5014026;28;1056;-67
2022/09/04 10:57:58;;;;;;;;;;;;;;;24.04;46.09;100283.84;5013886;28;1903;-67
2022/09/04 11:00:49;;;;;;;;;;;;;;;23.92;45.87;100278.47;5013808;28;831;-66
2022/09/04 11:03:18;;;;;;;;;;;;;;;23.87;46.25;100284.78;5013879;28;823;-67
2022/09/04 11:06:07;;;;;;;;;;;;;;;24.07;46.08;100287.75;5013907;28;834;-67
2022/09/04 11:08:35;;;;;;;;;;;;;;;24.08;46.03;100299.84;5013714;28;866;-67
2022/09/04 11:11:10;;;;;;;;;;;;;;;24.07;46.09;100286.97;5013615;28;1012;-67
2022/09/04 11:13:55;;;;;;;;;;;;;;;24.12;45.82;100294.78;5013865;28;966;-67
2022/09/04 11:16:28;;;;;;;;;;;;;;;24.10;45.64;100292.44;5013260;28;1250;-67
2022/09/04 11:19:14;;;;;;;;;;;;;;;24.22;45.48;100284.97;5013603;28;1910;-66
2022/09/04 11:22:02;;;;;;;;;;;;;;;24.31;45.29;100284.09;5013550;28;851;-67
2022/09/04 11:24:40;;;;;;;;;;;;;;;24.49;44.91;100278.25;5013632;28;884;-67
2022/09/04 11:27:08;;;;;;;;;;;;;;;24.75;44.51;100266.34;5013481;28;803;-66
2022/09/04 11:30:10;;;;;;;;;;;;;;;24.95;44.13;100257.91;5013197;28;878;-67
2022/09/04 11:32:56;;;;;;;;;;;;;;;25.13;43.73;100251.22;4933782;29;1280;-67
2022/09/04 11:35:42;;;;;;;;;;;;;;;25.49;42.56;100260.47;4933669;29;1025;-67
2022/09/04 11:38:23;;;;;;;;;;;;;;;25.81;41.83;100269.84;4933752;29;1968;-67
2022/09/04 11:41:19;;;;;;;;;;;;;;;25.72;42.01;100264.34;4933583;29;1103;-67
2022/09/04 11:43:48;;;;;;;;;;;;;;;25.84;41.73;100262.44;4933625;29;812;-68
2022/09/04 11:46:25;;;;;;;;;;;;;;;25.99;41.58;100251.00;4933500;29;1022;-67
2022/09/04 11:48:52;;;;;;;;;;;;;;;26.32;41.46;100261.13;4933764;29;828;-67
2022/09/04 11:51:43;;;;;;;;;;;;;;;26.32;41.09;100258.28;4933396;29;909;-67
2022/09/04 11:54:50;;;;;;;;;;;;;;;25.80;41.19;100262.63;4905318;29;1073;-67
2022/09/04 11:57:36;;;;;;;;;;;;;;;25.81;41.38;100246.44;4933244;29;883;-68
2022/09/04 12:00:11;;;;;;;;;;;;;;;26.02;41.09;100245.13;4932617;29;943;-66
2022/09/04 12:02:50;;;;;;;;;;;;;;;26.24;40.43;100246.63;4933497;29;823;-66
2022/09/04 12:05:16;;;;;;;;;;;;;;;26.46;39.85;100231.88;4933208;29;863;-68
2022/09/04 12:08:03;;;;;;;;;;;;;;;26.83;39.90;100237.56;5010078;28;889;-67
2022/09/04 12:10:46;;;;;;;;;;;;;;;26.72;39.42;100243.19;5012618;28;1050;-66
2022/09/04 12:13:29;;;;;;;;;;;;;;;26.72;39.46;100231.06;5012580;28;827;-67
2022/09/04 12:16:04;;;;;;;;;;;;;;;26.38;40.10;100239.28;5011736;28;1253;-67
2022/09/04 12:30:50;;;;;;;;;;;;;;;25.80;41.49;100228.66;5012629;28;672;-66
2022/09/04 12:36:39;;;;;;;;;;;;;;;25.08;42.01;100220.81;5012206;28;669;-67
2022/09/04 12:39:09;;;;;;;;;;;;;;;25.21;42.60;100226.16;4994400;28;1961;-67
2022/09/04 12:41:40;;;;;;;;;;;;;;;25.32;41.92;100231.19;5012166;28;835;-67
2022/09/04 12:44:07;;;;;;;;;;;;;;;26.08;41.08;100216.88;5012165;28;855;-66
2022/09/04 12:46:49;;;;;;;;;;;;;;;27.40;39.45;100221.66;5012008;28;855;-67
2022/09/04 12:49:34;;;;;;;;;;;;;;;28.07;37.84;100221.06;5012036;28;772;-68
2022/09/04 12:52:16;;;;;;;;;;;;;;;28.16;36.69;100222.13;5011997;28;823;-66
2022/09/04 12:54:50;;;;;;;;;;;;;;;28.37;36.56;100214.88;5011970;28;874;-68
2022/09/04 13:03:49;;;;;;;;;;;;;;;31.67;31.12;100205.94;5011930;28;630;-65
2022/09/04 13:06:38;;;;;;;;;;;;;;;30.81;31.73;100215.25;4994367;28;1345;-67
2022/09/04 13:09:24;;;;;;;;;;;;;;;28.79;34.10;100218.75;5011625;28;823;-66
2022/09/04 13:11:49;;;;;;;;;;;;;;;27.45;36.19;100225.81;5012062;28;929;-65
2022/09/04 13:14:27;;;;;;;;;;;;;;;26.73;37.30;100226.94;5011770;28;783;-65
2022/09/04 13:29:57;;;;;;;;;;;;;;;25.53;40.43;100232.72;4986677;28;641;-66
2022/09/04 13:32:36;;;;;;;;;;;;;;;25.39;40.68;100239.22;4991977;28;842;-66
2022/09/04 13:35:10;;;;;;;;;;;;;;;25.06;41.20;100237.50;4992239;28;823;-66
2022/09/04 13:49:52;;;;;;;;;;;;;;;24.40;42.85;100228.25;4992157;28;649;-66
2022/09/04 13:52:26;;;;;;;;;;;;;;;24.36;43.23;100229.72;4991877;28;886;-66
2022/09/04 13:54:58;;;;;;;;;;;;;;;24.50;43.02;100231.78;4991801;28;855;-66
2022/09/04 13:57:31;;;;;;;;;;;;;;;24.64;42.93;100241.50;4992424;28;792;-66
2022/09/04 14:00:01;;;;;;;;;;;;;;;24.70;43.27;100239.53;4991723;28;1895;-66
2022/09/04 14:02:30;;;;;;;;;;;;;;;24.76;42.99;100231.16;4991783;28;795;-66
2022/09/04 14:05:06;;;;;;;;;;;;;;;24.80;43.05;100234.56;4991937;28;889;-66
2022/09/04 14:10:54;;;;;;;;;;;;;;;24.89;43.17;100237.25;4991735;28;1098;-67
2022/09/04 14:16:35;;;;;;;;;;;;;;;24.74;43.25;100245.00;4991610;28;665;-66
2022/09/04 14:19:11;;;;;;;;;;;;;;;24.60;43.55;100244.53;4991576;28;1969;-66
2022/09/04 14:21:55;;;;;;;;;;;;;;;24.63;43.62;100237.91;4992280;28;842;-67
2022/09/04 14:24:31;;;;;;;;;;;;;;;24.71;43.38;100248.78;4995521;28;807;-66
2022/09/04 14:27:06;;;;;;;;;;;;;;;24.73;43.58;100241.41;4996818;28;1225;-66
2022/09/04 14:29:52;;;;;;;;;;;;;;;24.99;42.94;100235.09;5014538;28;855;-67
2022/09/04 14:32:36;;;;;;;;;;;;;;;25.57;42.21;100233.28;5014618;28;835;-67
2022/09/04 14:35:36;;;;;;;;;;;;;;;25.70;41.68;100251.97;5014410;28;871;-67
2022/09/04 14:38:03;;;;;;;;;;;;;;;25.39;42.13;100239.22;4971284;28;1906;-67
2022/09/04 14:40:32;;;;;;;;;;;;;;;25.31;41.95;100238.13;5014568;28;815;-68
2022/09/04 14:43:15;;;;;;;;;;;;;;;24.98;42.38;100237.13;5014255;28;784;-68
2022/09/04 14:45:49;;;;;;;;;;;;;;;24.71;42.69;100243.13;5014193;28;886;-67
2022/09/04 14:48:18;;;;;;;;;;;;;;;24.62;43.43;100244.03;5014247;28;858;-67
2022/09/04 14:51:10;;;;;;;;;;;;;;;24.50;43.39;100242.31;5014068;28;885;-67
2022/09/04 14:53:36;;;;;;;;;;;;;;;24.54;43.47;100243.69;5014185;28;831;-67
2022/09/04 14:56:37;;;;;;;;;;;;;;;25.00;42.25;100240.25;5014123;28;1030;-67
2022/09/04 14:59:14;;;;;;;;;;;;;;;25.35;41.80;100247.97;4971498;28;1882;-67
2022/09/04 15:02:04;;;;;;;;;;;;;;;25.13;42.11;100244.78;5013817;28;1034;-67
2022/09/04 15:04:52;;;;;;;;;;;;;;;24.71;42.22;100243.94;5013822;28;791;-66
2022/09/04 15:07:28;;;;;;;;;;;;;;;24.19;43.44;100244.31;5013667;28;1029;-66
2022/09/04 15:10:06;;;;;;;;;;;;;;;23.71;43.83;100249.31;5013874;28;881;-66
2022/09/04 15:12:36;;;;;;;;;;;;;;;23.37;44.69;100246.59;5014157;28;940;-67
2022/09/04 15:15:30;;;;;;;;;;;;;;;23.32;44.97;100244.44;5013712;28;830;-66
2022/09/04 15:18:02;;;;;;;;;;;;;;;23.31;45.28;100239.28;5005647;28;2000;-67
2022/09/04 15:20:30;;;;;;;;;;;;;;;23.30;44.94;100244.13;5013742;28;910;-66
2022/09/04 15:23:06;;;;;;;;;;;;;;;23.23;45.24;100247.31;5013556;28;826;-66
2022/09/04 15:25:33;;;;;;;;;;;;;;;23.13;45.16;100254.25;5013613;28;898;-66
2022/09/04 15:28:07;;;;;;;;;;;;;;;22.98;45.12;100252.13;5013182;28;1246;-66
2022/09/04 15:30:41;;;;;;;;;;;;;;;22.81;45.39;100253.78;5013369;28;846;-66
2022/09/04 15:33:10;;;;;;;;;;;;;;;22.68;45.83;100258.81;5013294;28;873;-66
2022/09/04 15:35:46;;;;;;;;;;;;;;;22.53;46.42;100267.16;5013215;28;893;-66
2022/09/04 15:38:26;;;;;;;;;;;;;;;22.39;46.64;100258.16;5013759;28;1917;-66
2022/09/04 15:40:52;;;;;;;;;;;;;;;22.35;46.59;100254.72;4995606;28;1550;-67
2022/09/04 15:43:19;;;;;;;;;;;;;;;22.38;47.01;100250.16;5013148;28;826;-66
2022/09/04 15:45:52;;;;;;;;;;;;;;;22.30;46.89;100251.78;5013092;28;865;-66
2022/09/04 15:48:24;;;;;;;;;;;;;;;22.17;47.19;100252.69;5012962;28;858;-66
2022/09/04 15:51:23;;;;;;;;;;;;;;;22.11;47.36;100256.63;5013156;28;866;-67
2022/09/04 15:54:11;;;;;;;;;;;;;;;22.05;47.71;100256.47;4995333;28;1269;-67
2022/09/04 15:56:44;;;;;;;;;;;;;;;22.08;47.62;100246.28;4999283;28;1204;-66
2022/09/04 15:59:14;;;;;;;;;;;;;;;22.17;47.73;100247.06;5012750;28;1890;-66
2022/09/04 16:01:45;;;;;;;;;;;;;;;22.25;47.70;100243.94;5013057;28;855;-66
2022/09/04 16:04:33;;;;;;;;;;;;;;;22.29;47.52;100238.94;5013082;28;858;-66
2022/09/04 16:07:00;;;;;;;;;;;;;;;22.29;47.83;100247.38;5013001;28;858;-66
2022/09/04 16:09:35;;;;;;;;;;;;;;;22.21;47.49;100238.44;5012722;28;882;-66
2022/09/04 16:12:09;;;;;;;;;;;;;;;22.06;47.94;100241.13;5012946;28;890;-66
2022/09/04 16:14:53;;;;;;;;;;;;;;;21.93;48.18;100237.72;5012594;28;815;-65
2022/09/04 16:17:24;;;;;;;;;;;;;;;21.80;48.22;100235.06;5012514;28;803;-66
2022/09/04 16:20:00;;;;;;;;;;;;;;;21.71;48.50;100235.06;5012667;28;1951;-65
2022/09/04 16:22:29;;;;;;;;;;;;;;;21.57;48.72;100234.47;5012478;28;803;-66
2022/09/04 16:25:07;;;;;;;;;;;;;;;21.44;49.40;100245.06;5012341;28;783;-67
2022/09/04 16:27:40;;;;;;;;;;;;;;;21.29;49.63;100241.25;5012219;28;1198;-66
2022/09/04 16:30:08;;;;;;;;;;;;;;;21.13;50.32;100247.97;5012310;28;891;-66
2022/09/04 16:32:35;;;;;;;;;;;;;;;20.94;50.75;100252.75;5012385;28;827;-66
2022/09/04 16:35:11;;;;;;;;;;;;;;;20.79;51.18;100249.72;5012328;28;827;-66
2022/09/04 16:38:04;;;;;;;;;;;;;;;20.60;51.97;100255.25;5012206;28;810;-66
2022/09/04 16:40:35;;;;;;;;;;;;;;;20.40;52.49;100254.81;5008754;28;1039;-66
2022/09/04 16:43:10;;;;;;;;;;;;;;;20.24;53.24;100260.66;5012196;28;835;-66